sensor_id;sensor_type;location;lat;lon;timestamp;P1;durP1;ratioP1;P2;durP2;ratioP2
60292;SDS011;52402;52.670;6.750;2024-03-07T00:00:21;1.50;;;1.40;;
60292;SDS011;52402;52.670;6.750;2024-03-07T00:02:47;1.40;;;1.30;;
60292;SDS011;52402;52.670;6.750;2024-03-07T00:05:14;1.40;;;1.30;;
60292;SDS011;52402;52.670;6.750;2024-03-07T00:07:41;1.10;;;1.10;;
60292;SDS011;52402;52.670;6.750;2024-03-07T00:10:07;1.40;;;1.30;;
60292;SDS011;52402;52.670;6.750;2024-03-07T00:12:34;1.15;;;1.15;;
60292;SDS011;52402;52.670;6.750;2024-03-07T00:15:00;1.45;;;1.35;;
60292;SDS011;52402;52.670;6.750;2024-03-07T00:17:30;1.55;;;1.45;;
60292;SDS011;52402;52.670;6.750;2024-03-07T00:19:55;1.50;;;1.40;;
60292;SDS011;52402;52.670;6.750;2024-03-07T00:22:21;1.60;;;1.50;;
60292;SDS011;52402;52.670;6.750;2024-03-07T00:24:47;1.15;;;1.15;;
60292;SDS011;52402;52.670;6.750;2024-03-07T00:27:13;1.40;;;1.30;;
60292;SDS011;52402;52.670;6.750;2024-03-07T00:29:39;1.40;;;1.30;;
60292;SDS011;52402;52.670;6.750;2024-03-07T00:32:05;1.10;;;1.10;;
60292;SDS011;52402;52.670;6.750;2024-03-07T00:34:32;1.40;;;1.30;;
60292;SDS011;52402;52.670;6.750;2024-03-07T00:36:59;1.35;;;1.25;;
60292;SDS011;52402;52.670;6.750;2024-03-07T00:39:25;1.42;;;1.33;;
60292;SDS011;52402;52.670;6.750;2024-03-07T00:41:50;1.42;;;1.33;;
60292;SDS011;52402;52.670;6.750;2024-03-07T00:44:16;1.10;;;1.10;;
60292;SDS011;52402;52.670;6.750;2024-03-07T00:46:42;1.42;;;1.33;;
60292;SDS011;52402;52.670;6.750;2024-03-07T00:49:08;1.30;;;1.20;;
60292;SDS011;52402;52.670;6.750;2024-03-07T00:51:33;1.10;;;1.10;;
60292;SDS011;52402;52.670;6.750;2024-03-07T00:53:59;1.23;;;1.20;;
60292;SDS011;52402;52.670;6.750;2024-03-07T00:56:25;1.48;;;1.38;;
60292;SDS011;52402;52.670;6.750;2024-03-07T00:58:51;1.00;;;1.00;;
60292;SDS011;52402;52.670;6.750;2024-03-07T01:01:17;1.20;;;1.20;;
60292;SDS011;52402;52.670;6.750;2024-03-07T01:03:44;1.10;;;1.10;;
60292;SDS011;52402;52.670;6.750;2024-03-07T01:06:09;1.10;;;1.10;;
60292;SDS011;52402;52.670;6.750;2024-03-07T01:08:35;1.15;;;1.15;;
60292;SDS011;52402;52.670;6.750;2024-03-07T01:11:02;1.13;;;1.13;;
60292;SDS011;52402;52.670;6.750;2024-03-07T01:13:35;1.10;;;1.10;;
60292;SDS011;52402;52.670;6.750;2024-03-07T01:16:01;1.08;;;1.08;;
60292;SDS011;52402;52.670;6.750;2024-03-07T01:18:27;1.00;;;1.00;;
60292;SDS011;52402;52.670;6.750;2024-03-07T01:20:53;0.90;;;0.90;;
60292;SDS011;52402;52.670;6.750;2024-03-07T01:23:19;0.90;;;0.90;;
60292;SDS011;52402;52.670;6.750;2024-03-07T01:25:45;1.17;;;1.17;;
60292;SDS011;52402;52.670;6.750;2024-03-07T01:28:11;1.08;;;1.08;;
60292;SDS011;52402;52.670;6.750;2024-03-07T01:30:38;1.20;;;1.20;;
60292;SDS011;52402;52.670;6.750;2024-03-07T01:33:04;1.10;;;1.10;;
60292;SDS011;52402;52.670;6.750;2024-03-07T01:35:30;0.98;;;0.98;;
60292;SDS011;52402;52.670;6.750;2024-03-07T01:37:55;1.00;;;1.00;;
60292;SDS011;52402;52.670;6.750;2024-03-07T01:40:21;1.00;;;1.00;;
60292;SDS011;52402;52.670;6.750;2024-03-07T01:42:48;0.90;;;0.90;;
60292;SDS011;52402;52.670;6.750;2024-03-07T01:45:15;0.88;;;0.88;;
60292;SDS011;52402;52.670;6.750;2024-03-07T01:47:41;0.93;;;0.93;;
60292;SDS011;52402;52.670;6.750;2024-03-07T01:50:07;0.80;;;0.80;;
60292;SDS011;52402;52.670;6.750;2024-03-07T01:52:33;1.10;;;1.10;;
60292;SDS011;52402;52.670;6.750;2024-03-07T01:54:58;0.90;;;0.90;;
60292;SDS011;52402;52.670;6.750;2024-03-07T01:57:25;1.00;;;1.00;;
60292;SDS011;52402;52.670;6.750;2024-03-07T01:59:51;1.00;;;1.00;;
60292;SDS011;52402;52.670;6.750;2024-03-07T02:02:17;1.02;;;1.02;;
60292;SDS011;52402;52.670;6.750;2024-03-07T02:04:43;1.02;;;1.02;;
60292;SDS011;52402;52.670;6.750;2024-03-07T02:07:08;1.00;;;1.00;;
60292;SDS011;52402;52.670;6.750;2024-03-07T02:09:36;1.10;;;1.10;;
60292;SDS011;52402;52.670;6.750;2024-03-07T02:12:02;1.00;;;1.00;;
60292;SDS011;52402;52.670;6.750;2024-03-07T02:14:28;0.90;;;0.90;;
60292;SDS011;52402;52.670;6.750;2024-03-07T02:16:54;1.02;;;1.02;;
60292;SDS011;52402;52.670;6.750;2024-03-07T02:19:24;1.00;;;1.00;;
60292;SDS011;52402;52.670;6.750;2024-03-07T02:21:49;1.00;;;1.00;;
60292;SDS011;52402;52.670;6.750;2024-03-07T02:24:15;0.98;;;0.98;;
60292;SDS011;52402;52.670;6.750;2024-03-07T02:26:41;1.00;;;1.00;;
60292;SDS011;52402;52.670;6.750;2024-03-07T02:29:06;1.00;;;1.00;;
60292;SDS011;52402;52.670;6.750;2024-03-07T02:31:32;0.88;;;0.88;;
60292;SDS011;52402;52.670;6.750;2024-03-07T02:34:04;0.98;;;0.98;;
60292;SDS011;52402;52.670;6.750;2024-03-07T02:36:32;1.00;;;1.00;;
60292;SDS011;52402;52.670;6.750;2024-03-07T02:38:58;1.00;;;1.00;;
60292;SDS011;52402;52.670;6.750;2024-03-07T02:41:25;0.93;;;0.93;;
60292;SDS011;52402;52.670;6.750;2024-03-07T02:43:51;0.95;;;0.95;;
60292;SDS011;52402;52.670;6.750;2024-03-07T02:46:17;0.90;;;0.90;;
60292;SDS011;52402;52.670;6.750;2024-03-07T02:48:42;0.85;;;0.85;;
60292;SDS011;52402;52.670;6.750;2024-03-07T02:51:09;0.90;;;0.90;;
60292;SDS011;52402;52.670;6.750;2024-03-07T02:53:36;0.80;;;0.80;;
60292;SDS011;52402;52.670;6.750;2024-03-07T02:56:03;0.80;;;0.80;;
60292;SDS011;52402;52.670;6.750;2024-03-07T02:58:32;0.83;;;0.83;;
60292;SDS011;52402;52.670;6.750;2024-03-07T03:00:59;0.70;;;0.70;;
60292;SDS011;52402;52.670;6.750;2024-03-07T03:03:28;0.90;;;0.90;;
60292;SDS011;52402;52.670;6.750;2024-03-07T03:05:56;0.90;;;0.90;;
60292;SDS011;52402;52.670;6.750;2024-03-07T03:08:22;0.90;;;0.90;;
60292;SDS011;52402;52.670;6.750;2024-03-07T03:10:49;0.80;;;0.80;;
60292;SDS011;52402;52.670;6.750;2024-03-07T03:13:16;0.77;;;0.77;;
60292;SDS011;52402;52.670;6.750;2024-03-07T03:15:42;0.80;;;0.80;;
60292;SDS011;52402;52.670;6.750;2024-03-07T03:18:08;0.70;;;0.70;;
60292;SDS011;52402;52.670;6.750;2024-03-07T03:20:34;0.80;;;0.80;;
60292;SDS011;52402;52.670;6.750;2024-03-07T03:23:04;0.75;;;0.75;;
60292;SDS011;52402;52.670;6.750;2024-03-07T03:25:30;0.70;;;0.70;;
60292;SDS011;52402;52.670;6.750;2024-03-07T03:28:00;0.75;;;0.75;;
60292;SDS011;52402;52.670;6.750;2024-03-07T03:30:26;0.70;;;0.70;;
60292;SDS011;52402;52.670;6.750;2024-03-07T03:32:52;0.75;;;0.75;;
60292;SDS011;52402;52.670;6.750;2024-03-07T03:35:17;0.80;;;0.80;;
60292;SDS011;52402;52.670;6.750;2024-03-07T03:37:44;0.85;;;0.85;;
60292;SDS011;52402;52.670;6.750;2024-03-07T03:40:11;0.73;;;0.73;;
60292;SDS011;52402;52.670;6.750;2024-03-07T03:42:40;0.82;;;0.82;;
60292;SDS011;52402;52.670;6.750;2024-03-07T03:45:07;0.70;;;0.70;;
60292;SDS011;52402;52.670;6.750;2024-03-07T03:47:37;0.70;;;0.70;;
60292;SDS011;52402;52.670;6.750;2024-03-07T03:50:06;0.80;;;0.80;;
60292;SDS011;52402;52.670;6.750;2024-03-07T03:55:03;0.90;;;0.90;;
60292;SDS011;52402;52.670;6.750;2024-03-07T03:57:31;0.80;;;0.80;;
60292;SDS011;52402;52.670;6.750;2024-03-07T03:59:57;0.80;;;0.80;;
60292;SDS011;52402;52.670;6.750;2024-03-07T04:02:23;0.80;;;0.80;;
60292;SDS011;52402;52.670;6.750;2024-03-07T04:04:49;0.80;;;0.80;;
60292;SDS011;52402;52.670;6.750;2024-03-07T04:07:16;0.70;;;0.70;;
60292;SDS011;52402;52.670;6.750;2024-03-07T04:09:43;0.80;;;0.80;;
60292;SDS011;52402;52.670;6.750;2024-03-07T04:12:10;0.82;;;0.82;;
60292;SDS011;52402;52.670;6.750;2024-03-07T04:14:36;0.80;;;0.80;;
60292;SDS011;52402;52.670;6.750;2024-03-07T04:17:04;0.70;;;0.70;;
60292;SDS011;52402;52.670;6.750;2024-03-07T04:19:32;0.80;;;0.80;;
60292;SDS011;52402;52.670;6.750;2024-03-07T04:21:58;0.73;;;0.73;;
60292;SDS011;52402;52.670;6.750;2024-03-07T04:24:24;0.90;;;0.90;;
60292;SDS011;52402;52.670;6.750;2024-03-07T04:26:50;0.70;;;0.70;;
60292;SDS011;52402;52.670;6.750;2024-03-07T04:29:18;0.80;;;0.80;;
60292;SDS011;52402;52.670;6.750;2024-03-07T04:31:44;0.70;;;0.70;;
60292;SDS011;52402;52.670;6.750;2024-03-07T04:34:09;0.82;;;0.82;;
60292;SDS011;52402;52.670;6.750;2024-03-07T04:36:35;0.70;;;0.70;;
60292;SDS011;52402;52.670;6.750;2024-03-07T04:39:00;0.73;;;0.73;;
60292;SDS011;52402;52.670;6.750;2024-03-07T04:41:29;0.73;;;0.73;;
60292;SDS011;52402;52.670;6.750;2024-03-07T04:43:55;0.80;;;0.80;;
60292;SDS011;52402;52.670;6.750;2024-03-07T04:46:20;0.70;;;0.70;;
60292;SDS011;52402;52.670;6.750;2024-03-07T04:48:46;0.80;;;0.80;;
60292;SDS011;52402;52.670;6.750;2024-03-07T04:51:11;0.70;;;0.70;;
60292;SDS011;52402;52.670;6.750;2024-03-07T04:53:39;0.90;;;0.90;;
60292;SDS011;52402;52.670;6.750;2024-03-07T04:56:07;0.75;;;0.75;;
60292;SDS011;52402;52.670;6.750;2024-03-07T04:58:34;0.70;;;0.70;;
60292;SDS011;52402;52.670;6.750;2024-03-07T05:01:00;0.70;;;0.70;;
60292;SDS011;52402;52.670;6.750;2024-03-07T05:03:27;0.88;;;0.88;;
60292;SDS011;52402;52.670;6.750;2024-03-07T05:05:53;0.80;;;0.80;;
60292;SDS011;52402;52.670;6.750;2024-03-07T05:08:18;0.90;;;0.90;;
60292;SDS011;52402;52.670;6.750;2024-03-07T05:10:44;0.70;;;0.70;;
60292;SDS011;52402;52.670;6.750;2024-03-07T05:13:09;0.70;;;0.70;;
60292;SDS011;52402;52.670;6.750;2024-03-07T05:15:35;0.80;;;0.80;;
60292;SDS011;52402;52.670;6.750;2024-03-07T05:18:01;0.70;;;0.70;;
60292;SDS011;52402;52.670;6.750;2024-03-07T05:20:27;0.80;;;0.80;;
60292;SDS011;52402;52.670;6.750;2024-03-07T05:22:53;0.70;;;0.70;;
60292;SDS011;52402;52.670;6.750;2024-03-07T05:25:19;0.60;;;0.60;;
60292;SDS011;52402;52.670;6.750;2024-03-07T05:27:46;0.70;;;0.70;;
60292;SDS011;52402;52.670;6.750;2024-03-07T05:30:15;0.80;;;0.80;;
60292;SDS011;52402;52.670;6.750;2024-03-07T05:32:40;0.77;;;0.77;;
60292;SDS011;52402;52.670;6.750;2024-03-07T05:35:06;0.70;;;0.70;;
60292;SDS011;52402;52.670;6.750;2024-03-07T05:37:32;0.70;;;0.70;;
60292;SDS011;52402;52.670;6.750;2024-03-07T05:39:58;0.60;;;0.60;;
60292;SDS011;52402;52.670;6.750;2024-03-07T05:42:24;0.70;;;0.70;;
60292;SDS011;52402;52.670;6.750;2024-03-07T05:44:51;0.77;;;0.77;;
60292;SDS011;52402;52.670;6.750;2024-03-07T05:47:16;0.70;;;0.70;;
60292;SDS011;52402;52.670;6.750;2024-03-07T05:49:42;0.70;;;0.70;;
60292;SDS011;52402;52.670;6.750;2024-03-07T05:52:08;0.80;;;0.80;;
60292;SDS011;52402;52.670;6.750;2024-03-07T05:54:34;0.70;;;0.70;;
60292;SDS011;52402;52.670;6.750;2024-03-07T05:57:00;0.70;;;0.70;;
60292;SDS011;52402;52.670;6.750;2024-03-07T05:59:26;0.60;;;0.60;;
60292;SDS011;52402;52.670;6.750;2024-03-07T06:01:56;0.50;;;0.50;;
60292;SDS011;52402;52.670;6.750;2024-03-07T06:04:22;0.77;;;0.77;;
60292;SDS011;52402;52.670;6.750;2024-03-07T06:06:48;0.68;;;0.68;;
60292;SDS011;52402;52.670;6.750;2024-03-07T06:09:13;0.70;;;0.70;;
60292;SDS011;52402;52.670;6.750;2024-03-07T06:11:40;0.52;;;0.52;;
60292;SDS011;52402;52.670;6.750;2024-03-07T06:14:09;0.65;;;0.65;;
60292;SDS011;52402;52.670;6.750;2024-03-07T06:16:38;0.53;;;0.53;;
60292;SDS011;52402;52.670;6.750;2024-03-07T06:19:05;0.60;;;0.60;;
60292;SDS011;52402;52.670;6.750;2024-03-07T06:21:34;0.55;;;0.55;;
60292;SDS011;52402;52.670;6.750;2024-03-07T06:24:01;0.50;;;0.50;;
60292;SDS011;52402;52.670;6.750;2024-03-07T06:26:30;0.60;;;0.60;;
60292;SDS011;52402;52.670;6.750;2024-03-07T06:29:10;0.57;;;0.57;;
60292;SDS011;52402;52.670;6.750;2024-03-07T06:31:36;0.60;;;0.60;;
60292;SDS011;52402;52.670;6.750;2024-03-07T06:34:02;0.50;;;0.50;;
60292;SDS011;52402;52.670;6.750;2024-03-07T06:36:28;0.60;;;0.60;;
60292;SDS011;52402;52.670;6.750;2024-03-07T06:38:54;0.70;;;0.70;;
60292;SDS011;52402;52.670;6.750;2024-03-07T06:41:20;0.60;;;0.60;;
60292;SDS011;52402;52.670;6.750;2024-03-07T06:43:45;0.60;;;0.60;;
60292;SDS011;52402;52.670;6.750;2024-03-07T06:46:11;0.60;;;0.60;;
60292;SDS011;52402;52.670;6.750;2024-03-07T06:48:37;0.50;;;0.50;;
60292;SDS011;52402;52.670;6.750;2024-03-07T06:51:05;0.60;;;0.60;;
60292;SDS011;52402;52.670;6.750;2024-03-07T06:53:31;0.60;;;0.60;;
60292;SDS011;52402;52.670;6.750;2024-03-07T06:55:57;0.60;;;0.60;;
60292;SDS011;52402;52.670;6.750;2024-03-07T06:58:22;0.60;;;0.60;;
60292;SDS011;52402;52.670;6.750;2024-03-07T07:00:48;0.60;;;0.60;;
60292;SDS011;52402;52.670;6.750;2024-03-07T07:03:17;0.50;;;0.50;;
60292;SDS011;52402;52.670;6.750;2024-03-07T07:05:44;0.60;;;0.60;;
60292;SDS011;52402;52.670;6.750;2024-03-07T07:08:12;0.50;;;0.50;;
60292;SDS011;52402;52.670;6.750;2024-03-07T07:10:38;0.50;;;0.50;;
60292;SDS011;52402;52.670;6.750;2024-03-07T07:13:09;0.60;;;0.60;;
60292;SDS011;52402;52.670;6.750;2024-03-07T07:15:35;0.60;;;0.60;;
60292;SDS011;52402;52.670;6.750;2024-03-07T07:18:02;0.60;;;0.60;;
60292;SDS011;52402;52.670;6.750;2024-03-07T07:20:28;0.63;;;0.63;;
60292;SDS011;52402;52.670;6.750;2024-03-07T07:22:54;0.65;;;0.65;;
60292;SDS011;52402;52.670;6.750;2024-03-07T07:25:22;0.65;;;0.65;;
60292;SDS011;52402;52.670;6.750;2024-03-07T07:27:49;0.60;;;0.60;;
60292;SDS011;52402;52.670;6.750;2024-03-07T07:30:16;0.50;;;0.50;;
60292;SDS011;52402;52.670;6.750;2024-03-07T07:32:43;0.60;;;0.60;;
60292;SDS011;52402;52.670;6.750;2024-03-07T07:35:10;0.60;;;0.60;;
60292;SDS011;52402;52.670;6.750;2024-03-07T07:37:37;0.70;;;0.70;;
60292;SDS011;52402;52.670;6.750;2024-03-07T07:40:14;0.50;;;0.50;;
60292;SDS011;52402;52.670;6.750;2024-03-07T07:42:43;0.60;;;0.60;;
60292;SDS011;52402;52.670;6.750;2024-03-07T07:45:11;0.60;;;0.60;;
60292;SDS011;52402;52.670;6.750;2024-03-07T07:50:06;0.50;;;0.50;;
60292;SDS011;52402;52.670;6.750;2024-03-07T07:52:39;0.60;;;0.60;;
60292;SDS011;52402;52.670;6.750;2024-03-07T07:55:06;0.70;;;0.70;;
60292;SDS011;52402;52.670;6.750;2024-03-07T07:57:39;0.70;;;0.70;;
60292;SDS011;52402;52.670;6.750;2024-03-07T08:00:12;0.80;;;0.80;;
60292;SDS011;52402;52.670;6.750;2024-03-07T08:02:46;0.70;;;0.70;;
60292;SDS011;52402;52.670;6.750;2024-03-07T08:05:14;0.70;;;0.70;;
60292;SDS011;52402;52.670;6.750;2024-03-07T08:07:43;0.70;;;0.70;;
60292;SDS011;52402;52.670;6.750;2024-03-07T08:10:09;0.70;;;0.70;;
60292;SDS011;52402;52.670;6.750;2024-03-07T08:12:35;0.60;;;0.60;;
60292;SDS011;52402;52.670;6.750;2024-03-07T08:15:02;0.60;;;0.60;;
60292;SDS011;52402;52.670;6.750;2024-03-07T08:17:29;0.70;;;0.70;;
60292;SDS011;52402;52.670;6.750;2024-03-07T08:19:56;0.70;;;0.70;;
60292;SDS011;52402;52.670;6.750;2024-03-07T08:22:22;0.60;;;0.60;;
60292;SDS011;52402;52.670;6.750;2024-03-07T08:24:47;0.60;;;0.60;;
60292;SDS011;52402;52.670;6.750;2024-03-07T08:27:13;0.60;;;0.60;;
60292;SDS011;52402;52.670;6.750;2024-03-07T08:29:38;0.60;;;0.60;;
60292;SDS011;52402;52.670;6.750;2024-03-07T08:32:04;0.70;;;0.70;;
60292;SDS011;52402;52.670;6.750;2024-03-07T08:34:31;0.60;;;0.60;;
60292;SDS011;52402;52.670;6.750;2024-03-07T08:36:56;0.60;;;0.60;;
60292;SDS011;52402;52.670;6.750;2024-03-07T08:39:22;0.60;;;0.60;;
60292;SDS011;52402;52.670;6.750;2024-03-07T08:41:48;0.60;;;0.60;;
60292;SDS011;52402;52.670;6.750;2024-03-07T08:44:13;0.70;;;0.70;;
60292;SDS011;52402;52.670;6.750;2024-03-07T08:46:39;0.65;;;0.65;;
60292;SDS011;52402;52.670;6.750;2024-03-07T08:49:06;0.70;;;0.70;;
60292;SDS011;52402;52.670;6.750;2024-03-07T08:51:32;0.55;;;0.55;;
60292;SDS011;52402;52.670;6.750;2024-03-07T08:53:57;0.70;;;0.70;;
60292;SDS011;52402;52.670;6.750;2024-03-07T08:56:24;0.68;;;0.68;;
60292;SDS011;52402;52.670;6.750;2024-03-07T08:58:49;0.65;;;0.65;;
60292;SDS011;52402;52.670;6.750;2024-03-07T09:01:15;0.50;;;0.50;;
60292;SDS011;52402;52.670;6.750;2024-03-07T09:03:40;0.60;;;0.60;;
60292;SDS011;52402;52.670;6.750;2024-03-07T09:06:06;0.60;;;0.60;;
60292;SDS011;52402;52.670;6.750;2024-03-07T09:08:32;0.60;;;0.60;;
60292;SDS011;52402;52.670;6.750;2024-03-07T09:10:57;0.70;;;0.70;;
60292;SDS011;52402;52.670;6.750;2024-03-07T09:13:23;0.60;;;0.60;;
60292;SDS011;52402;52.670;6.750;2024-03-07T09:15:48;0.60;;;0.60;;
60292;SDS011;52402;52.670;6.750;2024-03-07T09:18:14;0.52;;;0.52;;
60292;SDS011;52402;52.670;6.750;2024-03-07T09:20:41;0.60;;;0.60;;
60292;SDS011;52402;52.670;6.750;2024-03-07T09:23:06;0.60;;;0.60;;
60292;SDS011;52402;52.670;6.750;2024-03-07T09:25:32;0.50;;;0.50;;
60292;SDS011;52402;52.670;6.750;2024-03-07T09:27:58;0.50;;;0.50;;
60292;SDS011;52402;52.670;6.750;2024-03-07T09:30:25;0.60;;;0.60;;
60292;SDS011;52402;52.670;6.750;2024-03-07T09:32:52;0.60;;;0.60;;
60292;SDS011;52402;52.670;6.750;2024-03-07T09:35:21;0.57;;;0.57;;
60292;SDS011;52402;52.670;6.750;2024-03-07T09:37:47;0.52;;;0.52;;
60292;SDS011;52402;52.670;6.750;2024-03-07T09:40:12;0.80;;;0.80;;
60292;SDS011;52402;52.670;6.750;2024-03-07T09:42:45;0.60;;;0.60;;
60292;SDS011;52402;52.670;6.750;2024-03-07T09:45:13;0.60;;;0.60;;
60292;SDS011;52402;52.670;6.750;2024-03-07T09:47:42;0.60;;;0.60;;
60292;SDS011;52402;52.670;6.750;2024-03-07T09:50:13;0.60;;;0.60;;
60292;SDS011;52402;52.670;6.750;2024-03-07T09:52:40;0.65;;;0.65;;
60292;SDS011;52402;52.670;6.750;2024-03-07T09:55:08;0.60;;;0.60;;
60292;SDS011;52402;52.670;6.750;2024-03-07T09:57:34;0.60;;;0.60;;
60292;SDS011;52402;52.670;6.750;2024-03-07T10:00:01;0.70;;;0.70;;
60292;SDS011;52402;52.670;6.750;2024-03-07T10:02:28;0.60;;;0.60;;
60292;SDS011;52402;52.670;6.750;2024-03-07T10:04:57;0.50;;;0.50;;
60292;SDS011;52402;52.670;6.750;2024-03-07T10:07:23;0.60;;;0.60;;
60292;SDS011;52402;52.670;6.750;2024-03-07T10:09:49;0.55;;;0.55;;
60292;SDS011;52402;52.670;6.750;2024-03-07T10:12:17;0.70;;;0.70;;
60292;SDS011;52402;52.670;6.750;2024-03-07T10:14:56;0.70;;;0.70;;
60292;SDS011;52402;52.670;6.750;2024-03-07T10:17:24;0.70;;;0.70;;
60292;SDS011;52402;52.670;6.750;2024-03-07T10:19:54;0.70;;;0.70;;
60292;SDS011;52402;52.670;6.750;2024-03-07T10:22:21;0.60;;;0.60;;
60292;SDS011;52402;52.670;6.750;2024-03-07T10:24:50;0.70;;;0.70;;
60292;SDS011;52402;52.670;6.750;2024-03-07T10:27:17;0.70;;;0.70;;
60292;SDS011;52402;52.670;6.750;2024-03-07T10:29:46;0.60;;;0.60;;
60292;SDS011;52402;52.670;6.750;2024-03-07T10:32:18;0.60;;;0.60;;
60292;SDS011;52402;52.670;6.750;2024-03-07T10:34:45;0.68;;;0.68;;
60292;SDS011;52402;52.670;6.750;2024-03-07T10:37:12;0.70;;;0.70;;
60292;SDS011;52402;52.670;6.750;2024-03-07T10:39:41;0.60;;;0.60;;
60292;SDS011;52402;52.670;6.750;2024-03-07T10:42:13;0.60;;;0.60;;
60292;SDS011;52402;52.670;6.750;2024-03-07T10:44:44;0.63;;;0.63;;
60292;SDS011;52402;52.670;6.750;2024-03-07T10:47:11;0.70;;;0.70;;
60292;SDS011;52402;52.670;6.750;2024-03-07T10:52:28;0.60;;;0.60;;
60292;SDS011;52402;52.670;6.750;2024-03-07T10:57:50;0.80;;;0.80;;
60292;SDS011;52402;52.670;6.750;2024-03-07T11:00:24;0.70;;;0.70;;
60292;SDS011;52402;52.670;6.750;2024-03-07T11:03:08;0.80;;;0.80;;
60292;SDS011;52402;52.670;6.750;2024-03-07T11:05:36;0.80;;;0.80;;
60292;SDS011;52402;52.670;6.750;2024-03-07T11:08:03;0.80;;;0.80;;
60292;SDS011;52402;52.670;6.750;2024-03-07T11:10:38;0.70;;;0.70;;
60292;SDS011;52402;52.670;6.750;2024-03-07T11:13:05;0.70;;;0.70;;
60292;SDS011;52402;52.670;6.750;2024-03-07T11:15:35;0.70;;;0.70;;
60292;SDS011;52402;52.670;6.750;2024-03-07T11:18:02;0.90;;;0.90;;
60292;SDS011;52402;52.670;6.750;2024-03-07T11:20:35;0.77;;;0.77;;
60292;SDS011;52402;52.670;6.750;2024-03-07T11:23:23;0.80;;;0.80;;
60292;SDS011;52402;52.670;6.750;2024-03-07T11:26:03;0.68;;;0.68;;
60292;SDS011;52402;52.670;6.750;2024-03-07T11:28:33;0.70;;;0.70;;
60292;SDS011;52402;52.670;6.750;2024-03-07T11:33:38;0.82;;;0.82;;
60292;SDS011;52402;52.670;6.750;2024-03-07T11:36:08;0.80;;;0.80;;
60292;SDS011;52402;52.670;6.750;2024-03-07T11:38:49;0.70;;;0.70;;
60292;SDS011;52402;52.670;6.750;2024-03-07T11:41:18;0.82;;;0.82;;
60292;SDS011;52402;52.670;6.750;2024-03-07T11:43:44;0.80;;;0.80;;
60292;SDS011;52402;52.670;6.750;2024-03-07T11:46:10;0.80;;;0.80;;
60292;SDS011;52402;52.670;6.750;2024-03-07T11:48:41;0.80;;;0.80;;
60292;SDS011;52402;52.670;6.750;2024-03-07T11:51:08;1.00;;;1.00;;
60292;SDS011;52402;52.670;6.750;2024-03-07T11:53:38;0.80;;;0.80;;
60292;SDS011;52402;52.670;6.750;2024-03-07T11:56:05;0.70;;;0.70;;
60292;SDS011;52402;52.670;6.750;2024-03-07T11:58:41;0.80;;;0.80;;
60292;SDS011;52402;52.670;6.750;2024-03-07T12:01:09;0.80;;;0.80;;
60292;SDS011;52402;52.670;6.750;2024-03-07T12:03:36;0.70;;;0.70;;
60292;SDS011;52402;52.670;6.750;2024-03-07T12:06:02;0.80;;;0.80;;
60292;SDS011;52402;52.670;6.750;2024-03-07T12:08:28;0.90;;;0.90;;
60292;SDS011;52402;52.670;6.750;2024-03-07T12:10:54;0.95;;;0.95;;
60292;SDS011;52402;52.670;6.750;2024-03-07T12:13:21;0.90;;;0.90;;
60292;SDS011;52402;52.670;6.750;2024-03-07T12:15:49;0.90;;;0.90;;
60292;SDS011;52402;52.670;6.750;2024-03-07T12:18:16;0.70;;;0.70;;
60292;SDS011;52402;52.670;6.750;2024-03-07T12:20:43;0.80;;;0.80;;
60292;SDS011;52402;52.670;6.750;2024-03-07T12:23:16;0.93;;;0.93;;
60292;SDS011;52402;52.670;6.750;2024-03-07T12:25:44;0.80;;;0.80;;
60292;SDS011;52402;52.670;6.750;2024-03-07T12:28:12;0.80;;;0.80;;
60292;SDS011;52402;52.670;6.750;2024-03-07T12:30:52;1.00;;;1.00;;
60292;SDS011;52402;52.670;6.750;2024-03-07T12:33:19;0.88;;;0.88;;
60292;SDS011;52402;52.670;6.750;2024-03-07T12:35:46;0.85;;;0.85;;
60292;SDS011;52402;52.670;6.750;2024-03-07T12:38:15;0.80;;;0.80;;
60292;SDS011;52402;52.670;6.750;2024-03-07T12:40:44;0.90;;;0.90;;
60292;SDS011;52402;52.670;6.750;2024-03-07T12:43:17;0.90;;;0.90;;
60292;SDS011;52402;52.670;6.750;2024-03-07T12:48:13;0.88;;;0.88;;
60292;SDS011;52402;52.670;6.750;2024-03-07T12:50:39;0.70;;;0.70;;
60292;SDS011;52402;52.670;6.750;2024-03-07T12:53:05;0.80;;;0.80;;
60292;SDS011;52402;52.670;6.750;2024-03-07T12:55:37;0.90;;;0.90;;
60292;SDS011;52402;52.670;6.750;2024-03-07T12:58:09;0.93;;;0.93;;
60292;SDS011;52402;52.670;6.750;2024-03-07T13:00:36;0.90;;;0.90;;
60292;SDS011;52402;52.670;6.750;2024-03-07T13:03:03;1.00;;;1.00;;
60292;SDS011;52402;52.670;6.750;2024-03-07T13:05:30;0.90;;;0.90;;
60292;SDS011;52402;52.670;6.750;2024-03-07T13:07:56;1.00;;;1.00;;
60292;SDS011;52402;52.670;6.750;2024-03-07T13:10:22;1.00;;;1.00;;
60292;SDS011;52402;52.670;6.750;2024-03-07T13:12:48;0.98;;;0.98;;
60292;SDS011;52402;52.670;6.750;2024-03-07T13:15:15;0.95;;;0.95;;
60292;SDS011;52402;52.670;6.750;2024-03-07T13:17:41;1.10;;;1.10;;
60292;SDS011;52402;52.670;6.750;2024-03-07T13:20:11;0.98;;;0.98;;
60292;SDS011;52402;52.670;6.750;2024-03-07T13:22:41;0.82;;;0.82;;
60292;SDS011;52402;52.670;6.750;2024-03-07T13:25:08;1.00;;;1.00;;
60292;SDS011;52402;52.670;6.750;2024-03-07T13:27:43;1.00;;;1.00;;
60292;SDS011;52402;52.670;6.750;2024-03-07T13:30:16;0.90;;;0.90;;
60292;SDS011;52402;52.670;6.750;2024-03-07T13:32:48;1.00;;;1.00;;
60292;SDS011;52402;52.670;6.750;2024-03-07T13:35:15;1.00;;;1.00;;
60292;SDS011;52402;52.670;6.750;2024-03-07T13:37:40;0.90;;;0.90;;
60292;SDS011;52402;52.670;6.750;2024-03-07T13:40:06;1.08;;;1.08;;
60292;SDS011;52402;52.670;6.750;2024-03-07T13:42:47;0.90;;;0.90;;
60292;SDS011;52402;52.670;6.750;2024-03-07T13:45:20;0.90;;;0.90;;
60292;SDS011;52402;52.670;6.750;2024-03-07T13:50:16;1.00;;;1.00;;
60292;SDS011;52402;52.670;6.750;2024-03-07T13:52:47;1.10;;;1.10;;
60292;SDS011;52402;52.670;6.750;2024-03-07T13:55:33;1.00;;;1.00;;
60292;SDS011;52402;52.670;6.750;2024-03-07T13:58:29;1.10;;;1.10;;
60292;SDS011;52402;52.670;6.750;2024-03-07T14:13:22;0.88;;;0.88;;
60292;SDS011;52402;52.670;6.750;2024-03-07T14:16:21;1.00;;;1.00;;
60292;SDS011;52402;52.670;6.750;2024-03-07T14:25:19;1.10;;;1.10;;
60292;SDS011;52402;52.670;6.750;2024-03-07T14:30:43;1.10;;;1.10;;
60292;SDS011;52402;52.670;6.750;2024-03-07T14:33:32;1.08;;;1.08;;
60292;SDS011;52402;52.670;6.750;2024-03-07T14:36:14;1.10;;;1.10;;
60292;SDS011;52402;52.670;6.750;2024-03-07T14:38:46;1.10;;;1.10;;
60292;SDS011;52402;52.670;6.750;2024-03-07T14:41:18;1.40;;;1.30;;
60292;SDS011;52402;52.670;6.750;2024-03-07T14:43:48;0.95;;;0.95;;
60292;SDS011;52402;52.670;6.750;2024-03-07T14:46:15;1.08;;;1.08;;
60292;SDS011;52402;52.670;6.750;2024-03-07T14:51:38;1.10;;;1.10;;
60292;SDS011;52402;52.670;6.750;2024-03-07T14:54:04;1.00;;;1.00;;
60292;SDS011;52402;52.670;6.750;2024-03-07T14:56:30;1.38;;;1.27;;
60292;SDS011;52402;52.670;6.750;2024-03-07T14:58:56;1.10;;;1.10;;
60292;SDS011;52402;52.670;6.750;2024-03-07T15:01:22;1.10;;;1.10;;
60292;SDS011;52402;52.670;6.750;2024-03-07T15:03:51;1.10;;;1.10;;
60292;SDS011;52402;52.670;6.750;2024-03-07T15:06:17;1.10;;;1.10;;
60292;SDS011;52402;52.670;6.750;2024-03-07T15:08:46;1.10;;;1.10;;
60292;SDS011;52402;52.670;6.750;2024-03-07T15:11:29;1.00;;;1.00;;
60292;SDS011;52402;52.670;6.750;2024-03-07T15:13:59;1.00;;;1.00;;
60292;SDS011;52402;52.670;6.750;2024-03-07T15:16:26;1.13;;;1.13;;
60292;SDS011;52402;52.670;6.750;2024-03-07T15:18:55;0.90;;;0.90;;
60292;SDS011;52402;52.670;6.750;2024-03-07T15:21:21;1.00;;;1.00;;
60292;SDS011;52402;52.670;6.750;2024-03-07T15:23:46;0.98;;;0.98;;
60292;SDS011;52402;52.670;6.750;2024-03-07T15:26:12;1.00;;;1.00;;
60292;SDS011;52402;52.670;6.750;2024-03-07T15:28:40;1.02;;;1.02;;
60292;SDS011;52402;52.670;6.750;2024-03-07T15:31:06;1.00;;;1.00;;
60292;SDS011;52402;52.670;6.750;2024-03-07T15:33:35;1.00;;;1.00;;